sensor_id;sensor_type;location;lat;lon;timestamp;temperature;humidity
10472;DHT22;5283;48.876;8.962;2023-01-15T00:00:20;10.40;99.90
10472;DHT22;5283;48.876;8.962;2023-01-15T00:02:47;10.40;99.90
10472;DHT22;5283;48.876;8.962;2023-01-15T00:05:14;10.50;99.90
10472;DHT22;5283;48.876;8.962;2023-01-15T00:07:41;10.50;99.90
10472;DHT22;5283;48.876;8.962;2023-01-15T00:10:10;10.60;99.90
10472;DHT22;5283;48.876;8.962;2023-01-15T00:12:36;10.50;99.90
10472;DHT22;5283;48.876;8.962;2023-01-15T00:15:03;10.50;99.90
10472;DHT22;5283;48.876;8.962;2023-01-15T00:17:30;10.50;99.90
10472;DHT22;5283;48.876;8.962;2023-01-15T00:19:57;10.60;99.90
10472;DHT22;5283;48.876;8.962;2023-01-15T00:22:23;10.60;99.90
10472;DHT22;5283;48.876;8.962;2023-01-15T00:24:50;10.60;99.90
10472;DHT22;5283;48.876;8.962;2023-01-15T00:27:35;10.70;99.90
10472;DHT22;5283;48.876;8.962;2023-01-15T00:30:11;10.80;99.90
10472;DHT22;5283;48.876;8.962;2023-01-15T00:32:39;10.80;99.90
10472;DHT22;5283;48.876;8.962;2023-01-15T00:35:10;10.70;99.90
10472;DHT22;5283;48.876;8.962;2023-01-15T00:37:38;10.80;99.90
10472;DHT22;5283;48.876;8.962;2023-01-15T00:40:05;10.80;99.90
10472;DHT22;5283;48.876;8.962;2023-01-15T00:42:32;10.80;99.90
10472;DHT22;5283;48.876;8.962;2023-01-15T00:44:58;10.80;99.90
10472;DHT22;5283;48.876;8.962;2023-01-15T00:47:31;10.80;99.90
10472;DHT22;5283;48.876;8.962;2023-01-15T00:49:57;10.80;99.90
10472;DHT22;5283;48.876;8.962;2023-01-15T00:52:24;10.80;99.90
10472;DHT22;5283;48.876;8.962;2023-01-15T00:54:51;10.80;99.90
10472;DHT22;5283;48.876;8.962;2023-01-15T00:57:19;10.90;99.90
10472;DHT22;5283;48.876;8.962;2023-01-15T00:59:46;10.80;99.90
10472;DHT22;5283;48.876;8.962;2023-01-15T01:02:12;10.90;99.90
10472;DHT22;5283;48.876;8.962;2023-01-15T01:04:39;10.80;99.90
10472;DHT22;5283;48.876;8.962;2023-01-15T01:07:06;10.70;99.90
10472;DHT22;5283;48.876;8.962;2023-01-15T01:09:33;10.70;99.90
10472;DHT22;5283;48.876;8.962;2023-01-15T01:11:59;10.70;99.90
10472;DHT22;5283;48.876;8.962;2023-01-15T01:14:26;10.80;99.90
10472;DHT22;5283;48.876;8.962;2023-01-15T01:16:53;10.90;99.90
10472;DHT22;5283;48.876;8.962;2023-01-15T01:19:22;10.90;99.90
10472;DHT22;5283;48.876;8.962;2023-01-15T01:21:49;10.90;99.90
10472;DHT22;5283;48.876;8.962;2023-01-15T01:24:19;11.00;99.90
10472;DHT22;5283;48.876;8.962;2023-01-15T01:26:46;11.00;99.90
10472;DHT22;5283;48.876;8.962;2023-01-15T01:29:19;11.10;99.90
10472;DHT22;5283;48.876;8.962;2023-01-15T01:31:46;11.10;99.90
10472;DHT22;5283;48.876;8.962;2023-01-15T01:34:13;11.10;99.90
10472;DHT22;5283;48.876;8.962;2023-01-15T01:36:41;11.10;99.90
10472;DHT22;5283;48.876;8.962;2023-01-15T01:39:16;11.10;99.90
10472;DHT22;5283;48.876;8.962;2023-01-15T01:41:43;11.10;99.90
10472;DHT22;5283;48.876;8.962;2023-01-15T01:47:05;11.00;99.90
10472;DHT22;5283;48.876;8.962;2023-01-15T01:49:34;11.10;99.90
10472;DHT22;5283;48.876;8.962;2023-01-15T01:52:05;11.10;99.90
10472;DHT22;5283;48.876;8.962;2023-01-15T01:54:34;11.20;99.90
10472;DHT22;5283;48.876;8.962;2023-01-15T01:57:04;11.20;99.90
10472;DHT22;5283;48.876;8.962;2023-01-15T01:59:32;11.20;99.90
10472;DHT22;5283;48.876;8.962;2023-01-15T02:01:59;11.20;99.90
10472;DHT22;5283;48.876;8.962;2023-01-15T02:04:26;11.20;99.90
10472;DHT22;5283;48.876;8.962;2023-01-15T02:06:54;11.20;99.90
10472;DHT22;5283;48.876;8.962;2023-01-15T02:09:22;11.10;99.90
10472;DHT22;5283;48.876;8.962;2023-01-15T02:11:50;11.20;99.90
10472;DHT22;5283;48.876;8.962;2023-01-15T02:14:51;11.20;99.90
10472;DHT22;5283;48.876;8.962;2023-01-15T02:23:16;11.10;99.90
10472;DHT22;5283;48.876;8.962;2023-01-15T02:26:08;11.10;99.90
10472;DHT22;5283;48.876;8.962;2023-01-15T02:28:41;11.10;99.90
10472;DHT22;5283;48.876;8.962;2023-01-15T02:31:20;11.00;99.90
10472;DHT22;5283;48.876;8.962;2023-01-15T02:34:00;11.00;99.90
10472;DHT22;5283;48.876;8.962;2023-01-15T02:36:32;10.90;99.90
10472;DHT22;5283;48.876;8.962;2023-01-15T02:39:05;10.90;99.90
10472;DHT22;5283;48.876;8.962;2023-01-15T02:41:37;10.80;99.90
10472;DHT22;5283;48.876;8.962;2023-01-15T02:44:06;10.70;99.90
10472;DHT22;5283;48.876;8.962;2023-01-15T02:46:36;10.70;99.90
10472;DHT22;5283;48.876;8.962;2023-01-15T02:49:05;10.60;99.90
10472;DHT22;5283;48.876;8.962;2023-01-15T02:51:37;10.60;99.90
10472;DHT22;5283;48.876;8.962;2023-01-15T02:54:08;10.60;99.90
10472;DHT22;5283;48.876;8.962;2023-01-15T02:56:37;10.60;99.90
10472;DHT22;5283;48.876;8.962;2023-01-15T02:59:10;10.60;99.90
10472;DHT22;5283;48.876;8.962;2023-01-15T03:01:48;10.70;99.90
10472;DHT22;5283;48.876;8.962;2023-01-15T03:07:02;10.80;99.90
10472;DHT22;5283;48.876;8.962;2023-01-15T03:09:32;10.70;99.90
10472;DHT22;5283;48.876;8.962;2023-01-15T03:12:15;10.80;99.90
10472;DHT22;5283;48.876;8.962;2023-01-15T03:14:59;10.80;99.90
10472;DHT22;5283;48.876;8.962;2023-01-15T03:17:48;10.80;99.90
10472;DHT22;5283;48.876;8.962;2023-01-15T03:20:24;10.90;99.90
10472;DHT22;5283;48.876;8.962;2023-01-15T03:22:57;10.90;99.90
10472;DHT22;5283;48.876;8.962;2023-01-15T03:25:29;11.00;99.90
10472;DHT22;5283;48.876;8.962;2023-01-15T03:28:00;11.00;99.90
10472;DHT22;5283;48.876;8.962;2023-01-15T03:30:28;11.00;99.90
10472;DHT22;5283;48.876;8.962;2023-01-15T03:32:55;11.00;99.90
10472;DHT22;5283;48.876;8.962;2023-01-15T03:38:16;11.10;99.90
10472;DHT22;5283;48.876;8.962;2023-01-15T03:49:36;11.10;99.90
10472;DHT22;5283;48.876;8.962;2023-01-15T03:55:04;11.00;99.90
10472;DHT22;5283;48.876;8.962;2023-01-15T03:57:38;11.00;99.90
10472;DHT22;5283;48.876;8.962;2023-01-15T04:00:27;11.00;99.90
10472;DHT22;5283;48.876;8.962;2023-01-15T04:02:56;10.90;99.90
10472;DHT22;5283;48.876;8.962;2023-01-15T04:05:25;10.90;99.90
10472;DHT22;5283;48.876;8.962;2023-01-15T04:07:53;11.00;99.90
10472;DHT22;5283;48.876;8.962;2023-01-15T04:10:22;10.90;99.90
10472;DHT22;5283;48.876;8.962;2023-01-15T04:12:49;11.00;99.90
10472;DHT22;5283;48.876;8.962;2023-01-15T04:15:16;11.00;99.90
10472;DHT22;5283;48.876;8.962;2023-01-15T04:17:42;11.00;99.90
10472;DHT22;5283;48.876;8.962;2023-01-15T04:20:10;11.00;99.90
10472;DHT22;5283;48.876;8.962;2023-01-15T04:22:37;11.10;99.90
10472;DHT22;5283;48.876;8.962;2023-01-15T04:25:05;11.10;99.90
10472;DHT22;5283;48.876;8.962;2023-01-15T04:27:32;11.10;99.90
10472;DHT22;5283;48.876;8.962;2023-01-15T04:29:59;11.00;99.90
10472;DHT22;5283;48.876;8.962;2023-01-15T04:32:25;11.00;99.90
10472;DHT22;5283;48.876;8.962;2023-01-15T04:34:52;11.00;99.90
10472;DHT22;5283;48.876;8.962;2023-01-15T04:37:19;11.10;99.90
10472;DHT22;5283;48.876;8.962;2023-01-15T04:39:46;11.00;99.90
10472;DHT22;5283;48.876;8.962;2023-01-15T04:42:13;11.00;99.90
10472;DHT22;5283;48.876;8.962;2023-01-15T04:44:59;11.00;99.90
10472;DHT22;5283;48.876;8.962;2023-01-15T04:47:25;11.00;99.90
10472;DHT22;5283;48.876;8.962;2023-01-15T04:49:55;11.00;99.90
10472;DHT22;5283;48.876;8.962;2023-01-15T04:52:21;11.00;99.90
10472;DHT22;5283;48.876;8.962;2023-01-15T04:54:48;11.00;99.90
10472;DHT22;5283;48.876;8.962;2023-01-15T04:57:14;9.90;99.90
10472;DHT22;5283;48.876;8.962;2023-01-15T04:59:41;9.30;99.90
10472;DHT22;5283;48.876;8.962;2023-01-15T05:02:08;9.10;99.90
10472;DHT22;5283;48.876;8.962;2023-01-15T05:04:34;8.90;99.90
10472;DHT22;5283;48.876;8.962;2023-01-15T05:07:02;8.70;99.90
10472;DHT22;5283;48.876;8.962;2023-01-15T05:09:30;8.50;99.90
10472;DHT22;5283;48.876;8.962;2023-01-15T05:11:57;8.40;99.90
10472;DHT22;5283;48.876;8.962;2023-01-15T05:14:23;8.20;99.90
10472;DHT22;5283;48.876;8.962;2023-01-15T05:16:50;8.00;99.90
10472;DHT22;5283;48.876;8.962;2023-01-15T05:19:17;7.90;99.90
10472;DHT22;5283;48.876;8.962;2023-01-15T05:21:44;7.90;99.90
10472;DHT22;5283;48.876;8.962;2023-01-15T05:24:14;7.90;99.90
10472;DHT22;5283;48.876;8.962;2023-01-15T05:26:41;7.80;99.90
10472;DHT22;5283;48.876;8.962;2023-01-15T05:29:10;7.80;99.90
10472;DHT22;5283;48.876;8.962;2023-01-15T05:31:36;7.70;99.90
10472;DHT22;5283;48.876;8.962;2023-01-15T05:34:04;7.70;99.90
10472;DHT22;5283;48.876;8.962;2023-01-15T05:36:30;7.60;99.90
10472;DHT22;5283;48.876;8.962;2023-01-15T05:38:58;7.50;99.90
10472;DHT22;5283;48.876;8.962;2023-01-15T05:41:27;7.40;99.90
10472;DHT22;5283;48.876;8.962;2023-01-15T05:44:14;7.30;99.90
10472;DHT22;5283;48.876;8.962;2023-01-15T05:46:42;7.30;99.90
10472;DHT22;5283;48.876;8.962;2023-01-15T05:49:11;7.20;99.90
10472;DHT22;5283;48.876;8.962;2023-01-15T05:51:39;7.20;99.90
10472;DHT22;5283;48.876;8.962;2023-01-15T05:54:10;7.10;99.90
10472;DHT22;5283;48.876;8.962;2023-01-15T05:56:37;7.10;99.90
10472;DHT22;5283;48.876;8.962;2023-01-15T05:59:05;7.10;99.90
10472;DHT22;5283;48.876;8.962;2023-01-15T06:01:32;7.10;99.90
10472;DHT22;5283;48.876;8.962;2023-01-15T06:04:00;7.00;99.90
10472;DHT22;5283;48.876;8.962;2023-01-15T06:06:27;7.00;99.90
10472;DHT22;5283;48.876;8.962;2023-01-15T06:08:54;6.90;99.90
10472;DHT22;5283;48.876;8.962;2023-01-15T06:11:22;6.90;99.90
10472;DHT22;5283;48.876;8.962;2023-01-15T06:13:49;6.90;99.90
10472;DHT22;5283;48.876;8.962;2023-01-15T06:16:16;6.90;99.90
10472;DHT22;5283;48.876;8.962;2023-01-15T06:18:44;6.90;99.90
10472;DHT22;5283;48.876;8.962;2023-01-15T06:21:12;6.80;99.90
10472;DHT22;5283;48.876;8.962;2023-01-15T06:23:40;6.80;99.90
10472;DHT22;5283;48.876;8.962;2023-01-15T06:26:11;6.70;99.90
10472;DHT22;5283;48.876;8.962;2023-01-15T06:28:38;6.70;99.90
10472;DHT22;5283;48.876;8.962;2023-01-15T06:31:06;6.60;99.90
10472;DHT22;5283;48.876;8.962;2023-01-15T06:33:33;6.50;99.90
10472;DHT22;5283;48.876;8.962;2023-01-15T06:36:09;6.40;99.90
10472;DHT22;5283;48.876;8.962;2023-01-15T06:38:37;6.30;99.90
10472;DHT22;5283;48.876;8.962;2023-01-15T06:41:05;6.20;99.90
10472;DHT22;5283;48.876;8.962;2023-01-15T06:43:52;6.20;99.90
10472;DHT22;5283;48.876;8.962;2023-01-15T06:46:43;6.10;99.90
10472;DHT22;5283;48.876;8.962;2023-01-15T06:49:30;6.10;99.90
10472;DHT22;5283;48.876;8.962;2023-01-15T06:51:57;6.00;99.90
10472;DHT22;5283;48.876;8.962;2023-01-15T06:54:24;6.00;99.90
10472;DHT22;5283;48.876;8.962;2023-01-15T06:56:51;5.90;99.90
10472;DHT22;5283;48.876;8.962;2023-01-15T06:59:18;5.90;99.90
10472;DHT22;5283;48.876;8.962;2023-01-15T07:01:45;5.90;99.90
10472;DHT22;5283;48.876;8.962;2023-01-15T07:04:13;5.80;99.90
10472;DHT22;5283;48.876;8.962;2023-01-15T07:06:40;5.80;99.90
10472;DHT22;5283;48.876;8.962;2023-01-15T07:09:07;5.70;99.90
10472;DHT22;5283;48.876;8.962;2023-01-15T07:11:33;5.70;99.90
10472;DHT22;5283;48.876;8.962;2023-01-15T07:14:00;5.70;99.90
10472;DHT22;5283;48.876;8.962;2023-01-15T07:16:36;5.70;99.90
10472;DHT22;5283;48.876;8.962;2023-01-15T07:19:03;5.60;99.90
10472;DHT22;5283;48.876;8.962;2023-01-15T07:21:30;5.50;99.90
10472;DHT22;5283;48.876;8.962;2023-01-15T07:24:00;5.50;99.90
10472;DHT22;5283;48.876;8.962;2023-01-15T07:26:27;5.40;99.90
10472;DHT22;5283;48.876;8.962;2023-01-15T07:28:54;5.40;99.90
10472;DHT22;5283;48.876;8.962;2023-01-15T07:31:20;5.40;99.90
10472;DHT22;5283;48.876;8.962;2023-01-15T07:33:47;5.50;99.90
10472;DHT22;5283;48.876;8.962;2023-01-15T07:36:14;5.50;99.90
10472;DHT22;5283;48.876;8.962;2023-01-15T07:38:40;5.50;99.90
10472;DHT22;5283;48.876;8.962;2023-01-15T07:41:07;5.40;99.90
10472;DHT22;5283;48.876;8.962;2023-01-15T07:43:52;5.40;99.90
10472;DHT22;5283;48.876;8.962;2023-01-15T07:46:38;5.40;99.90
10472;DHT22;5283;48.876;8.962;2023-01-15T07:49:23;5.40;99.90
10472;DHT22;5283;48.876;8.962;2023-01-15T07:52:09;5.40;99.90
10472;DHT22;5283;48.876;8.962;2023-01-15T07:54:35;5.50;99.90
10472;DHT22;5283;48.876;8.962;2023-01-15T07:57:02;5.50;99.90
10472;DHT22;5283;48.876;8.962;2023-01-15T07:59:29;5.50;99.90
10472;DHT22;5283;48.876;8.962;2023-01-15T08:01:56;5.50;99.90
10472;DHT22;5283;48.876;8.962;2023-01-15T08:04:23;5.60;99.90
10472;DHT22;5283;48.876;8.962;2023-01-15T08:06:49;5.60;99.90
10472;DHT22;5283;48.876;8.962;2023-01-15T08:09:16;5.60;99.90
10472;DHT22;5283;48.876;8.962;2023-01-15T08:11:42;5.60;99.90
10472;DHT22;5283;48.876;8.962;2023-01-15T08:14:27;5.50;99.90
10472;DHT22;5283;48.876;8.962;2023-01-15T08:17:13;5.40;99.90
10472;DHT22;5283;48.876;8.962;2023-01-15T08:19:39;5.40;99.90
10472;DHT22;5283;48.876;8.962;2023-01-15T08:22:06;5.40;99.90
10472;DHT22;5283;48.876;8.962;2023-01-15T08:24:35;5.40;99.90
10472;DHT22;5283;48.876;8.962;2023-01-15T08:27:02;5.40;99.90
10472;DHT22;5283;48.876;8.962;2023-01-15T08:29:29;5.40;99.90
10472;DHT22;5283;48.876;8.962;2023-01-15T08:31:55;5.40;99.90
10472;DHT22;5283;48.876;8.962;2023-01-15T08:34:22;5.40;99.90
10472;DHT22;5283;48.876;8.962;2023-01-15T08:36:49;5.40;99.90
10472;DHT22;5283;48.876;8.962;2023-01-15T08:39:22;5.30;99.90
10472;DHT22;5283;48.876;8.962;2023-01-15T08:41:49;5.30;99.90
10472;DHT22;5283;48.876;8.962;2023-01-15T08:44:15;5.20;99.90
10472;DHT22;5283;48.876;8.962;2023-01-15T08:46:42;5.20;99.90
10472;DHT22;5283;48.876;8.962;2023-01-15T08:49:10;5.10;99.90
10472;DHT22;5283;48.876;8.962;2023-01-15T08:51:36;5.10;99.90
10472;DHT22;5283;48.876;8.962;2023-01-15T08:54:03;5.10;99.90
10472;DHT22;5283;48.876;8.962;2023-01-15T08:56:30;5.00;99.90
10472;DHT22;5283;48.876;8.962;2023-01-15T08:58:56;5.00;99.90
10472;DHT22;5283;48.876;8.962;2023-01-15T09:01:23;4.90;99.90
10472;DHT22;5283;48.876;8.962;2023-01-15T09:03:50;4.90;99.90
10472;DHT22;5283;48.876;8.962;2023-01-15T09:06:16;4.90;99.90
10472;DHT22;5283;48.876;8.962;2023-01-15T09:08:43;4.90;99.90
10472;DHT22;5283;48.876;8.962;2023-01-15T09:11:10;4.90;99.90
10472;DHT22;5283;48.876;8.962;2023-01-15T09:13:38;4.90;99.90
10472;DHT22;5283;48.876;8.962;2023-01-15T09:16:06;5.00;99.90
10472;DHT22;5283;48.876;8.962;2023-01-15T09:18:38;5.00;99.90
10472;DHT22;5283;48.876;8.962;2023-01-15T09:21:05;5.00;99.90
10472;DHT22;5283;48.876;8.962;2023-01-15T09:23:32;5.00;99.90
10472;DHT22;5283;48.876;8.962;2023-01-15T09:26:01;5.00;99.90
10472;DHT22;5283;48.876;8.962;2023-01-15T09:28:31;5.00;99.90
10472;DHT22;5283;48.876;8.962;2023-01-15T09:30:58;5.00;99.90
10472;DHT22;5283;48.876;8.962;2023-01-15T09:33:25;5.00;99.90
10472;DHT22;5283;48.876;8.962;2023-01-15T09:35:52;5.00;99.90
10472;DHT22;5283;48.876;8.962;2023-01-15T09:38:20;5.00;99.90
10472;DHT22;5283;48.876;8.962;2023-01-15T09:40:53;4.90;99.90
10472;DHT22;5283;48.876;8.962;2023-01-15T09:49:30;4.80;99.90
10472;DHT22;5283;48.876;8.962;2023-01-15T09:54:55;4.70;99.90
10472;DHT22;5283;48.876;8.962;2023-01-15T09:57:26;4.70;99.90
10472;DHT22;5283;48.876;8.962;2023-01-15T09:59:55;4.70;99.90
10472;DHT22;5283;48.876;8.962;2023-01-15T10:02:44;4.60;99.90
10472;DHT22;5283;48.876;8.962;2023-01-15T10:05:20;4.60;99.90
10472;DHT22;5283;48.876;8.962;2023-01-15T10:10:34;4.50;99.90
10472;DHT22;5283;48.876;8.962;2023-01-15T10:13:10;4.40;99.90
10472;DHT22;5283;48.876;8.962;2023-01-15T10:15:44;4.40;99.90
10472;DHT22;5283;48.876;8.962;2023-01-15T10:18:21;4.40;99.90
10472;DHT22;5283;48.876;8.962;2023-01-15T10:23:50;4.30;99.90
10472;DHT22;5283;48.876;8.962;2023-01-15T10:26:37;4.20;99.90
10472;DHT22;5283;48.876;8.962;2023-01-15T10:44:08;3.70;99.90
10472;DHT22;5283;48.876;8.962;2023-01-15T10:46:29;3.70;99.90
10472;DHT22;5283;48.876;8.962;2023-01-15T10:49:14;3.60;99.90
10472;DHT22;5283;48.876;8.962;2023-01-15T10:52:24;3.60;99.90
10472;DHT22;5283;48.876;8.962;2023-01-15T10:54:53;3.60;99.90
10472;DHT22;5283;48.876;8.962;2023-01-15T11:00:37;3.70;99.90
10472;DHT22;5283;48.876;8.962;2023-01-15T11:03:12;3.60;99.90
10472;DHT22;5283;48.876;8.962;2023-01-15T11:05:42;3.60;99.90
10472;DHT22;5283;48.876;8.962;2023-01-15T11:08:20;3.60;99.90
10472;DHT22;5283;48.876;8.962;2023-01-15T11:14:10;3.50;99.90
10472;DHT22;5283;48.876;8.962;2023-01-15T11:16:56;3.50;99.90
10472;DHT22;5283;48.876;8.962;2023-01-15T11:19:42;3.40;99.90
10472;DHT22;5283;48.876;8.962;2023-01-15T11:22:13;3.40;99.90
10472;DHT22;5283;48.876;8.962;2023-01-15T11:24:53;3.40;99.90
10472;DHT22;5283;48.876;8.962;2023-01-15T11:27:26;3.30;99.90
10472;DHT22;5283;48.876;8.962;2023-01-15T11:29:55;3.30;99.90
10472;DHT22;5283;48.876;8.962;2023-01-15T11:32:32;3.20;99.90
10472;DHT22;5283;48.876;8.962;2023-01-15T11:35:14;3.30;99.90
10472;DHT22;5283;48.876;8.962;2023-01-15T11:37:42;3.30;99.90
10472;DHT22;5283;48.876;8.962;2023-01-15T11:40:20;3.30;99.90
10472;DHT22;5283;48.876;8.962;2023-01-15T11:42:49;3.30;99.90
10472;DHT22;5283;48.876;8.962;2023-01-15T11:45:51;3.30;99.90
10472;DHT22;5283;48.876;8.962;2023-01-15T11:48:45;3.30;99.90
10472;DHT22;5283;48.876;8.962;2023-01-15T11:51:34;3.30;99.90
10472;DHT22;5283;48.876;8.962;2023-01-15T11:54:12;3.30;99.90
10472;DHT22;5283;48.876;8.962;2023-01-15T11:56:42;3.30;99.90
10472;DHT22;5283;48.876;8.962;2023-01-15T11:59:11;3.40;99.90
10472;DHT22;5283;48.876;8.962;2023-01-15T12:01:50;3.40;99.90
10472;DHT22;5283;48.876;8.962;2023-01-15T12:04:28;3.40;99.90
10472;DHT22;5283;48.876;8.962;2023-01-15T12:06:56;3.40;99.90
10472;DHT22;5283;48.876;8.962;2023-01-15T12:15:37;3.50;99.90
10472;DHT22;5283;48.876;8.962;2023-01-15T12:18:13;3.60;99.90
10472;DHT22;5283;48.876;8.962;2023-01-15T12:21:03;3.60;99.90
10472;DHT22;5283;48.876;8.962;2023-01-15T12:27:01;3.70;99.90
10472;DHT22;5283;48.876;8.962;2023-01-15T12:29:25;3.80;99.90
10472;DHT22;5283;48.876;8.962;2023-01-15T12:31:57;3.80;99.90
10472;DHT22;5283;48.876;8.962;2023-01-15T12:34:48;3.80;99.90
10472;DHT22;5283;48.876;8.962;2023-01-15T12:37:22;3.80;99.90
10472;DHT22;5283;48.876;8.962;2023-01-15T12:42:32;3.90;99.90
10472;DHT22;5283;48.876;8.962;2023-01-15T12:46:06;3.90;99.90
10472;DHT22;5283;48.876;8.962;2023-01-15T12:48:27;4.00;99.90
10472;DHT22;5283;48.876;8.962;2023-01-15T12:50:58;4.10;99.90
10472;DHT22;5283;48.876;8.962;2023-01-15T12:53:54;4.10;99.90
10472;DHT22;5283;48.876;8.962;2023-01-15T12:56:28;4.20;99.90
10472;DHT22;5283;48.876;8.962;2023-01-15T12:59:18;4.30;99.90
10472;DHT22;5283;48.876;8.962;2023-01-15T13:04:52;4.30;99.90
10472;DHT22;5283;48.876;8.962;2023-01-15T13:07:32;4.30;99.90
10472;DHT22;5283;48.876;8.962;2023-01-15T13:10:05;4.30;99.90
10472;DHT22;5283;48.876;8.962;2023-01-15T13:12:35;4.30;99.90
10472;DHT22;5283;48.876;8.962;2023-01-15T13:15:03;4.30;99.90
10472;DHT22;5283;48.876;8.962;2023-01-15T13:23:30;4.30;99.90
10472;DHT22;5283;48.876;8.962;2023-01-15T13:31:59;4.70;99.90
10472;DHT22;5283;48.876;8.962;2023-01-15T13:34:45;4.70;99.90
10472;DHT22;5283;48.876;8.962;2023-01-15T13:37:27;4.80;99.90
10472;DHT22;5283;48.876;8.962;2023-01-15T13:40:22;4.80;99.90
10472;DHT22;5283;48.876;8.962;2023-01-15T13:42:46;4.80;99.90
10472;DHT22;5283;48.876;8.962;2023-01-15T13:47:46;4.90;99.90
10472;DHT22;5283;48.876;8.962;2023-01-15T13:50:26;4.90;99.90
10472;DHT22;5283;48.876;8.962;2023-01-15T13:53:15;5.00;99.90
10472;DHT22;5283;48.876;8.962;2023-01-15T13:55:49;5.00;99.90
10472;DHT22;5283;48.876;8.962;2023-01-15T13:58:29;5.10;99.90
10472;DHT22;5283;48.876;8.962;2023-01-15T14:04:04;5.20;99.90
10472;DHT22;5283;48.876;8.962;2023-01-15T14:06:40;5.20;99.90
10472;DHT22;5283;48.876;8.962;2023-01-15T14:09:27;5.20;99.90
10472;DHT22;5283;48.876;8.962;2023-01-15T14:17:22;5.20;99.90
10472;DHT22;5283;48.876;8.962;2023-01-15T14:22:55;5.00;99.90
10472;DHT22;5283;48.876;8.962;2023-01-15T14:31:13;5.00;99.90
10472;DHT22;5283;48.876;8.962;2023-01-15T14:34:04;5.00;99.90
10472;DHT22;5283;48.876;8.962;2023-01-15T14:37:06;5.10;99.90
10472;DHT22;5283;48.876;8.962;2023-01-15T14:39:59;5.00;99.90
10472;DHT22;5283;48.876;8.962;2023-01-15T14:42:34;5.00;99.90
10472;DHT22;5283;48.876;8.962;2023-01-15T14:45:25;5.00;99.90
10472;DHT22;5283;48.876;8.962;2023-01-15T14:47:55;5.00;99.90
10472;DHT22;5283;48.876;8.962;2023-01-15T14:50:35;5.00;99.90
10472;DHT22;5283;48.876;8.962;2023-01-15T14:53:18;4.90;99.90
10472;DHT22;5283;48.876;8.962;2023-01-15T14:56:10;5.00;99.90
10472;DHT22;5283;48.876;8.962;2023-01-15T14:59:02;5.00;99.90
10472;DHT22;5283;48.876;8.962;2023-01-15T15:01:49;5.20;99.90
10472;DHT22;5283;48.876;8.962;2023-01-15T15:07:17;4.80;99.90
10472;DHT22;5283;48.876;8.962;2023-01-15T15:10:04;4.80;99.90
10472;DHT22;5283;48.876;8.962;2023-01-15T15:18:20;4.60;99.90
10472;DHT22;5283;48.876;8.962;2023-01-15T15:21:05;4.50;99.90
10472;DHT22;5283;48.876;8.962;2023-01-15T15:26:33;4.60;99.90
10472;DHT22;5283;48.876;8.962;2023-01-15T15:29:12;4.50;99.90
10472;DHT22;5283;48.876;8.962;2023-01-15T15:31:45;4.40;99.90
10472;DHT22;5283;48.876;8.962;2023-01-15T15:34:21;4.30;99.90
10472;DHT22;5283;48.876;8.962;2023-01-15T15:36:49;4.20;99.90
10472;DHT22;5283;48.876;8.962;2023-01-15T15:39:22;4.10;99.90
10472;DHT22;5283;48.876;8.962;2023-01-15T15:41:53;4.00;99.90
10472;DHT22;5283;48.876;8.962;2023-01-15T15:44:48;4.00;99.90
10472;DHT22;5283;48.876;8.962;2023-01-15T15:47:37;4.00;99.90
10472;DHT22;5283;48.876;8.962;2023-01-15T15:50:24;3.90;99.90
10472;DHT22;5283;48.876;8.962;2023-01-15T15:52:51;4.00;99.90
10472;DHT22;5283;48.876;8.962;2023-01-15T15:55:19;3.90;99.90
10472;DHT22;5283;48.876;8.962;2023-01-15T15:57:49;3.80;99.90
10472;DHT22;5283;48.876;8.962;2023-01-15T16:00:31;3.70;99.90
10472;DHT22;5283;48.876;8.962;2023-01-15T16:03:07;3.60;99.90
10472;DHT22;5283;48.876;8.962;2023-01-15T16:05:41;3.70;99.90
10472;DHT22;5283;48.876;8.962;2023-01-15T16:10:41;3.60;99.90
10472;DHT22;5283;48.876;8.962;2023-01-15T16:13:15;3.60;99.90
10472;DHT22;5283;48.876;8.962;2023-01-15T16:15:46;3.60;99.90
10472;DHT22;5283;48.876;8.962;2023-01-15T16:18:35;3.60;99.90
10472;DHT22;5283;48.876;8.962;2023-01-15T16:21:07;3.50;99.90
10472;DHT22;5283;48.876;8.962;2023-01-15T16:23:34;3.40;99.90
10472;DHT22;5283;48.876;8.962;2023-01-15T16:26:11;3.30;99.90
10472;DHT22;5283;48.876;8.962;2023-01-15T16:28:42;3.40;99.90
10472;DHT22;5283;48.876;8.962;2023-01-15T16:31:14;3.40;99.90
10472;DHT22;5283;48.876;8.962;2023-01-15T16:33:42;3.30;99.90
10472;DHT22;5283;48.876;8.962;2023-01-15T16:36:09;3.40;99.90
10472;DHT22;5283;48.876;8.962;2023-01-15T16:38:39;3.60;99.90
10472;DHT22;5283;48.876;8.962;2023-01-15T16:41:25;3.60;99.90
10472;DHT22;5283;48.876;8.962;2023-01-15T16:44:00;3.60;99.90
10472;DHT22;5283;48.876;8.962;2023-01-15T16:46:46;3.50;99.90
10472;DHT22;5283;48.876;8.962;2023-01-15T16:51:58;3.50;99.90
10472;DHT22;5283;48.876;8.962;2023-01-15T17:02:11;3.20;99.90
10472;DHT22;5283;48.876;8.962;2023-01-15T17:04:40;3.30;99.90
10472;DHT22;5283;48.876;8.962;2023-01-15T17:07:23;3.20;99.90
10472;DHT22;5283;48.876;8.962;2023-01-15T17:09:58;3.20;99.90
10472;DHT22;5283;48.876;8.962;2023-01-15T17:12:37;3.20;99.90
10472;DHT22;5283;48.876;8.962;2023-01-15T17:17:45;3.30;99.90
10472;DHT22;5283;48.876;8.962;2023-01-15T17:20:13;3.30;99.90
10472;DHT22;5283;48.876;8.962;2023-01-15T17:22:42;3.20;99.90
10472;DHT22;5283;48.876;8.962;2023-01-15T17:25:25;3.20;99.90
10472;DHT22;5283;48.876;8.962;2023-01-15T17:27:53;3.20;99.90
10472;DHT22;5283;48.876;8.962;2023-01-15T17:30:21;3.30;99.90
10472;DHT22;5283;48.876;8.962;2023-01-15T17:32:56;3.30;99.90
10472;DHT22;5283;48.876;8.962;2023-01-15T17:35:26;3.20;99.90
10472;DHT22;5283;48.876;8.962;2023-01-15T17:37:53;3.30;99.90
10472;DHT22;5283;48.876;8.962;2023-01-15T17:40:20;3.40;99.90
10472;DHT22;5283;48.876;8.962;2023-01-15T17:42:47;3.40;99.90
10472;DHT22;5283;48.876;8.962;2023-01-15T17:45:20;3.40;99.90
10472;DHT22;5283;48.876;8.962;2023-01-15T17:47:47;3.30;99.90
10472;DHT22;5283;48.876;8.962;2023-01-15T17:50:14;3.30;99.90
10472;DHT22;5283;48.876;8.962;2023-01-15T17:52:42;3.20;99.90
10472;DHT22;5283;48.876;8.962;2023-01-15T17:55:19;3.20;99.90
10472;DHT22;5283;48.876;8.962;2023-01-15T17:58:10;3.10;99.90
10472;DHT22;5283;48.876;8.962;2023-01-15T18:00:56;3.20;99.90
10472;DHT22;5283;48.876;8.962;2023-01-15T18:03:45;3.10;99.90
10472;DHT22;5283;48.876;8.962;2023-01-15T18:06:32;3.10;99.90
10472;DHT22;5283;48.876;8.962;2023-01-15T18:09:02;3.20;99.90
10472;DHT22;5283;48.876;8.962;2023-01-15T18:11:29;3.20;99.90
10472;DHT22;5283;48.876;8.962;2023-01-15T18:13:56;3.20;99.90
10472;DHT22;5283;48.876;8.962;2023-01-15T18:16:23;3.20;99.90
10472;DHT22;5283;48.876;8.962;2023-01-15T18:18:52;3.20;99.90
10472;DHT22;5283;48.876;8.962;2023-01-15T18:21:19;3.20;99.90
10472;DHT22;5283;48.876;8.962;2023-01-15T18:23:46;3.20;99.90
10472;DHT22;5283;48.876;8.962;2023-01-15T18:26:13;3.20;99.90
10472;DHT22;5283;48.876;8.962;2023-01-15T18:28:40;3.20;99.90
10472;DHT22;5283;48.876;8.962;2023-01-15T18:31:07;3.20;99.90
10472;DHT22;5283;48.876;8.962;2023-01-15T18:33:34;3.20;99.90
10472;DHT22;5283;48.876;8.962;2023-01-15T18:36:19;3.20;99.90
10472;DHT22;5283;48.876;8.962;2023-01-15T18:38:45;3.20;99.90
10472;DHT22;5283;48.876;8.962;2023-01-15T18:41:17;3.20;99.90
10472;DHT22;5283;48.876;8.962;2023-01-15T18:44:09;3.20;99.90
10472;DHT22;5283;48.876;8.962;2023-01-15T18:46:58;3.30;99.90